Aeroporto :
LOGIN :

Iscrizione | Disclaimer

   EN    FR    IT 

 










Sommario :    VFR   VFR Marginale   IFR   IFR Intensivo   IFR Molto Intensivo
Visibilità : 
Base nubi : 
>= 8 km
>= 3000ft
5 / 8 km
1000 / 3000 ft
1500m / 5 km
500 / 1000 ft
800 / 1500m
200 / 500 ft
< 800m
< 200 ft
Simboli :   Temporali  Nebbia  Neve Forte  Precipitazioni Forti  Vento > 20 kt
SIGMETs :   Varie  Temporali  Ghiacco  Turbolenza  Onda orograficha  Ceneri Vulcaniche






- Altitudine del aeroporto : 1768 ft


LEHC - Huesca Pirineos

ULTIMO METAR :
  • 220430Z AUTO 09003KT 9999 BKN043 05/03 Q1005

METARs OBSOLETI :
  • 220400Z AUTO VRB02KT 9999 SCT050 05/03 Q1005
  • 220330Z AUTO 08003KT 9999 FEW039 SCT048 05/03 Q1005
  • 220300Z AUTO 07002KT 9999 BKN043 05/03 Q1005
  • 220230Z AUTO 05003KT CAVOK 05/03 Q1006
  • 220200Z AUTO 04003KT 010V080 CAVOK 05/03 Q1006

TAF TAF LEHC
Valido dal 22 a 03 ore il 23 a 03 ore UTC


220200Z 2203/2303 VRB03KT 9999 SCT030 TX10/2213Z TN06/2206Z
BECMG 2209/2211 10014KT
TEMPO 2213/2223 4000 SHRA BKN010 BKN020TCU
PROB40
TEMPO 2220/2303 0500 BCFG
BECMG 2222/2224 VRB04KT



MetMap, La meteo Aeronautica in un colpo d'occhio ! - Copyright ORBIFLY Dicembre 2007 - Disclaimer

ORBIFLY MET'MAP TEAM :

Programmazione e sviluppo : Alexandra Zaïnal
Concezione e sviluppo : Baudouin d'Aumeries
Co-Programmazione e sviluppo : Marc-Olivier Méhu
Supporto tecnico e logistico : Manuel Goepfert
Aiuto per la traduzione : Arnaldo La Scala

Contatto : metmap@orbifly.com




FONTI E CREDITI :

   NOAA